Time;durP1;ratioP1;P1;durP2;ratioP2;P2;SDS_P1;SDS_P2;PMS_P1;PMS_P2;Temp;Humidity;BMP_temperature;BMP_pressure;BME280_temperature;BME280_humidity;BME280_pressure;Samples;Min_cycle;Max_cycle;Signal;HPM_P1;HPM_P2
2023/07/21 00:01:36;;;;;;;0.20;0.20;;;;;;;;;;6248423;28;20041;-40
2023/07/21 00:04:38;;;;;;;0.30;0.20;;;;;;;;;;6247327;28;20037;-44
2023/07/21 00:07:40;;;;;;;0.32;0.30;;;;;;;;;;6249122;28;20115;-41
2023/07/21 00:10:47;;;;;;;0.20;0.20;;;24.00;75.20;;;;;;6236186;28;20036;-43
2023/07/21 00:13:49;;;;;;;0.30;0.20;;;24.00;75.40;;;;;;6240536;28;20048;-41
2023/07/21 00:16:53;;;;;;;0.40;0.30;;;;;;;;;;6247826;28;20041;-40
2023/07/21 00:19:56;;;;;;;0.20;0.20;;;;;;;;;;6248279;28;20044;-41
2023/07/21 00:22:58;;;;;;;0.28;0.28;;;;;;;;;;6234671;28;20040;-40
2023/07/21 00:26:01;;;;;;;0.13;0.13;;;;;;;;;;6241908;28;20040;-41
2023/07/21 00:29:03;;;;;;;0.32;0.30;;;23.80;76.10;;;;;;6246811;28;20798;-40
2023/07/21 00:32:08;;;;;;;0.20;0.20;;;;;;;;;;6238490;28;20765;-42
2023/07/21 00:35:10;;;;;;;0.30;0.30;;;;;;;;;;6235558;28;20037;-43
2023/07/21 00:38:13;;;;;;;0.20;0.20;;;;;;;;;;6244748;28;20033;-41
2023/07/21 00:41:15;;;;;;;0.20;0.20;;;;;;;;;;6238737;28;20119;-41
2023/07/21 00:44:18;;;;;;;0.30;0.28;;;23.80;75.60;;;;;;6246842;28;20041;-42
2023/07/21 00:47:23;;;;;;;0.20;0.20;;;;;;;;;;6247994;28;20040;-39
2023/07/21 00:50:25;;;;;;;0.28;0.25;;;;;;;;;;6245488;28;20037;-40
2023/07/21 00:53:27;;;;;;;0.20;0.20;;;;;;;;;;6247718;28;20044;-38
2023/07/21 00:56:32;;;;;;;0.20;0.20;;;23.80;72.80;;;;;;6247079;28;20037;-40
2023/07/21 00:59:35;;;;;;;0.20;0.20;;;23.70;76.90;;;;;;6244869;28;20076;-40
2023/07/21 01:02:36;;;;;;;0.40;0.30;;;;;;;;;;6247374;28;20056;-41
2023/07/21 01:05:42;;;;;;;0.25;0.25;;;23.80;76.40;;;;;;6248002;28;20061;-40
2023/07/21 01:08:45;;;;;;;0.20;0.20;;;;;;;;;;6247333;28;20672;-49
2023/07/21 01:11:47;;;;;;;0.40;0.30;;;;;;;;;;6244160;28;20052;-47
2023/07/21 01:14:49;;;;;;;0.30;0.20;;;23.70;76.30;;;;;;6246262;28;20041;-48
2023/07/21 01:17:52;;;;;;;0.20;0.20;;;;;;;;;;6244705;28;20139;-46
2023/07/21 01:20:55;;;;;;;0.20;0.20;;;;;;;;;;6245166;28;20034;-47
2023/07/21 01:24:06;;;;;;;0.10;0.10;;;23.70;77.30;;;;;;6284377;22;20044;-49
2023/07/21 01:27:12;;;;;;;0.20;0.20;;;23.60;77.20;;;;;;6303980;28;20032;-53
2023/07/21 01:30:17;;;;;;;0.30;0.20;;;23.70;77.40;;;;;;6300203;28;20040;-52
2023/07/21 01:33:20;;;;;;;0.17;0.15;;;23.70;77.60;;;;;;6306467;28;20073;-54
2023/07/21 01:36:23;;;;;;;0.20;0.20;;;23.70;77.30;;;;;;6305823;28;20484;-53
2023/07/21 01:39:26;;;;;;;0.10;0.10;;;23.70;76.70;;;;;;6301636;28;20164;-52
2023/07/21 01:42:30;;;;;;;0.20;0.20;;;23.70;77.70;;;;;;6301564;28;20040;-53
2023/07/21 01:45:32;;;;;;;0.32;0.20;;;;;;;;;;6286106;28;20048;-53
2023/07/21 01:48:34;;;;;;;0.20;0.20;;;;;;;;;;6308652;28;20043;-53
2023/07/21 01:51:36;;;;;;;0.50;0.22;;;23.60;76.20;;;;;;6309378;28;20391;-53
2023/07/21 01:54:46;;;;;;;0.20;0.20;;;23.60;77.30;;;;;;6302964;28;20114;-51
2023/07/21 01:57:51;;;;;;;0.20;0.20;;;23.60;77.60;;;;;;6300847;28;20040;-51
2023/07/21 02:00:56;;;;;;;0.20;0.20;;;;;;;;;;6303823;28;20642;-52
2023/07/21 02:03:58;;;;;;;0.30;0.30;;;;;;;;;;6302823;28;20040;-54
2023/07/21 02:07:02;;;;;;;0.20;0.20;;;;;;;;;;6304256;28;20046;-52
2023/07/21 02:10:05;;;;;;;0.30;0.20;;;;;;;;;;6304077;28;20044;-53
2023/07/21 02:13:07;;;;;;;0.20;0.20;;;23.50;77.80;;;;;;6303109;28;20039;-52
2023/07/21 02:16:14;;;;;;;0.20;0.20;;;23.70;73.70;;;;;;6304265;28;20117;-54
2023/07/21 02:19:17;;;;;;;0.25;0.25;;;;;;;;;;6303982;28;20040;-54
2023/07/21 02:22:20;;;;;;;0.20;0.20;;;;;;;;;;6303117;28;20462;-52
2023/07/21 02:25:22;;;;;;;0.30;0.30;;;;;;;;;;6302740;28;20032;-51
2023/07/21 02:28:24;;;;;;;0.40;0.20;;;23.50;77.70;;;;;;6303263;28;20059;-53
2023/07/21 02:31:28;;;;;;;0.30;0.28;;;;;;;;;;6302791;28;20051;-52
2023/07/21 02:34:32;;;;;;;0.20;0.20;;;23.60;73.70;;;;;;6302505;28;20538;-52
2023/07/21 02:37:36;;;;;;;0.17;0.15;;;;;;;;;;6300070;28;20169;-53
2023/07/21 02:40:38;;;;;;;0.22;0.13;;;;;;;;;;6298123;28;20055;-52
2023/07/21 02:43:40;;;;;;;0.20;0.20;;;23.60;77.40;;;;;;6300027;28;20056;-50
2023/07/21 02:46:42;;;;;;;0.73;0.30;;;;;;;;;;6300819;28;20040;-53
2023/07/21 02:49:44;;;;;;;0.20;0.20;;;23.60;73.50;;;;;;6302456;28;20043;-52
2023/07/21 02:52:46;;;;;;;0.35;0.30;;;;;;;;;;6301840;28;20044;-51
2023/07/21 02:55:49;;;;;;;0.28;0.20;;;;;;;;;;6301090;28;20032;-53
2023/07/21 02:58:52;;;;;;;0.10;0.10;;;23.50;76.80;;;;;;6301279;28;20032;-54
2023/07/21 03:01:55;;;;;;;0.30;0.20;;;;;;;;;;6302406;28;20040;-52
2023/07/21 03:05:05;;;;;;;0.10;0.10;;;;;;;;;;6300497;28;20028;-53
2023/07/21 03:08:08;;;;;;;0.30;0.30;;;;;;;;;;6302190;28;20043;-53
2023/07/21 03:11:11;;;;;;;0.40;0.28;;;;;;;;;;6302980;28;20123;-53
2023/07/21 03:14:22;;;;;;;0.30;0.30;;;23.50;77.10;;;;;;6300413;28;20111;-51
2023/07/21 03:17:24;;;;;;;0.25;0.20;;;;;;;;;;6297644;28;20050;-52
2023/07/21 03:20:26;;;;;;;0.30;0.22;;;;;;;;;;6301137;28;20042;-54
2023/07/21 03:23:28;;;;;;;0.28;0.20;;;;;;;;;;6299477;28;20371;-54
2023/07/21 03:26:33;;;;;;;0.30;0.30;;;;;;;;;;6301170;28;20039;-53
2023/07/21 03:29:35;;;;;;;0.20;0.20;;;23.50;76.80;;;;;;6300568;28;20036;-53
2023/07/21 03:32:38;;;;;;;0.10;0.10;;;;;;;;;;6299443;28;20049;-53
2023/07/21 03:35:40;;;;;;;0.20;0.20;;;;;;;;;;6298976;28;20047;-53
2023/07/21 03:38:48;;;;;;;0.20;0.20;;;;;;;;;;6299944;28;20028;-52
2023/07/21 03:41:50;;;;;;;0.30;0.30;;;;;;;;;;6299550;28;20525;-53
2023/07/21 03:44:54;;;;;;;0.30;0.30;;;23.40;76.70;;;;;;6297981;28;20040;-52
2023/07/21 03:47:56;;;;;;;0.13;0.13;;;;;;;;;;6301067;28;20066;-53
2023/07/21 03:50:59;;;;;;;0.43;0.30;;;23.30;77.40;;;;;;6299969;28;20071;-52
2023/07/21 03:54:02;;;;;;;0.30;0.30;;;;;;;;;;6299505;28;20504;-52
2023/07/21 03:57:07;;;;;;;0.22;0.22;;;23.50;75.10;;;;;;6300802;28;20115;-53
2023/07/21 04:00:11;;;;;;;0.28;0.25;;;23.40;77.10;;;;;;6298654;28;20433;-53
2023/07/21 04:03:17;;;;;;;0.30;0.30;;;;;;;;;;6298830;28;20052;-53
2023/07/21 04:06:20;;;;;;;0.20;0.20;;;;;;;;;;6296681;28;20138;-52
2023/07/21 04:09:22;;;;;;;0.20;0.20;;;;;;;;;;6297582;28;20040;-52
2023/07/21 04:12:28;;;;;;;0.30;0.22;;;;;;;;;;6296972;28;20040;-52
2023/07/21 04:15:30;;;;;;;0.28;0.20;;;23.40;75.00;;;;;;6298761;28;20044;-52
2023/07/21 04:18:32;;;;;;;0.30;0.30;;;;;;;;;;6300816;28;20036;-50
2023/07/21 04:21:34;;;;;;;0.43;0.30;;;;;;;;;;6299329;28;20567;-53
2023/07/21 04:24:36;;;;;;;0.20;0.20;;;;;;;;;;6296232;28;20312;-52
2023/07/21 04:27:38;;;;;;;0.40;0.30;;;;;;;;;;6298277;28;20043;-53
2023/07/21 04:30:41;;;;;;;0.30;0.30;;;23.30;75.00;;;;;;6293965;28;20040;-52
2023/07/21 04:33:43;;;;;;;0.30;0.30;;;;;;;;;;6295495;28;20044;-52
2023/07/21 04:36:45;;;;;;;0.40;0.30;;;;;;;;;;6296294;28;20044;-53
2023/07/21 04:39:57;;;;;;;0.30;0.30;;;;;;;;;;6296892;28;20101;-52
2023/07/21 04:42:59;;;;;;;0.30;0.30;;;;;;;;;;6296415;28;20040;-53
2023/07/21 04:46:04;;;;;;;0.40;0.35;;;23.30;76.60;;;;;;6297633;28;20064;-53
2023/07/21 04:49:13;;;;;;;0.40;0.40;;;;;;;;;;6298054;28;20032;-52
2023/07/21 04:52:19;;;;;;;0.30;0.30;;;;;;;;;;6298412;28;20911;-53
2023/07/21 04:55:26;;;;;;;0.40;0.40;;;;;;;;;;6295563;28;20054;-52
2023/07/21 04:58:29;;;;;;;0.20;0.20;;;;;;;;;;6298794;28;20060;-51
2023/07/21 05:01:32;;;;;;;0.35;0.30;;;23.20;76.40;;;;;;6302548;28;20444;-53
2023/07/21 05:04:33;;;;;;;0.45;0.40;;;;;;;;;;6290366;28;20036;-53
2023/07/21 05:07:35;;;;;;;0.50;0.40;;;;;;;;;;6293695;28;20036;-53
2023/07/21 05:10:37;;;;;;;0.50;0.40;;;;;;;;;;6290337;28;20071;-52
2023/07/21 05:13:45;;;;;;;0.30;0.30;;;;;;;;;;6287904;28;20040;-50
2023/07/21 05:16:52;;;;;;;0.55;0.30;;;23.20;77.60;;;;;;6293255;28;20040;-50
2023/07/21 05:20:05;;;;;;;0.30;0.30;;;23.20;76.50;;;;;;6292068;28;20056;-50
2023/07/21 05:23:19;;;;;;;0.40;0.35;;;;;;;;;;6290530;28;20071;-51
2023/07/21 05:26:30;;;;;;;0.40;0.38;;;23.20;77.60;;;;;;6293966;28;20031;-53
2023/07/21 05:29:32;;;;;;;0.45;0.40;;;23.40;78.00;;;;;;6294470;28;20517;-52
2023/07/21 05:32:34;;;;;;;0.35;0.30;;;24.80;78.80;;;;;;6290663;28;20074;-51
2023/07/21 05:35:42;;;;;;;0.30;0.30;;;;;;;;;;6285308;28;20042;-53
2023/07/21 05:38:52;;;;;;;0.40;0.40;;;;;;;;;;6287549;28;20032;-52
2023/07/21 05:41:56;;;;;;;0.45;0.43;;;23.20;77.80;;;;;;6290953;28;20391;-48
2023/07/21 05:45:00;;;;;;;0.47;0.40;;;;;;;;;;6288288;28;20036;-52
2023/07/21 05:48:03;;;;;;;0.47;0.47;;;23.10;77.20;;;;;;6289615;28;20522;-50
2023/07/21 05:51:12;;;;;;;0.30;0.30;;;23.10;78.50;;;;;;6295626;28;20506;-49
2023/07/21 05:54:14;;;;;;;0.60;0.40;;;;;;;;;;6287763;28;20465;-49
2023/07/21 05:57:16;;;;;;;0.50;0.40;;;;;;;;;;6286379;28;20044;-50
2023/07/21 06:00:21;;;;;;;0.35;0.35;;;;;;;;;;6293966;28;20029;-49
2023/07/21 06:03:31;;;;;;;0.22;0.22;;;23.10;77.90;;;;;;6293697;28;20036;-52
2023/07/21 06:06:38;;;;;;;0.40;0.40;;;23.20;77.90;;;;;;6295648;28;20062;-52
2023/07/21 06:09:50;;;;;;;0.40;0.30;;;;;;;;;;6300013;28;20052;-53
2023/07/21 06:13:07;;;;;;;0.47;0.40;;;;;;;;;;6288662;28;20032;-51
2023/07/21 06:16:19;;;;;;;0.35;0.35;;;;;;;;;;6284910;28;20562;-52
2023/07/21 06:19:24;;;;;;;0.45;0.40;;;23.10;77.70;;;;;;6300481;28;20100;-51
2023/07/21 06:22:28;;;;;;;0.60;0.40;;;;;;;;;;6303368;28;20082;-49
2023/07/21 06:25:30;;;;;;;0.52;0.50;;;;;;;;;;6299293;28;20036;-50
2023/07/21 06:28:38;;;;;;;0.65;0.50;;;;;;;;;;6299338;28;20553;-53
2023/07/21 06:31:40;;;;;;;0.45;0.43;;;;;;;;;;6306375;28;20047;-53
2023/07/21 06:34:54;;;;;;;0.60;0.40;;;23.00;76.90;;;;;;6293699;28;20630;-51
2023/07/21 06:38:09;;;;;;;0.47;0.43;;;;;;;;;;6291049;28;20032;-51
2023/07/21 06:41:21;;;;;;;0.80;0.57;;;;;;;;;;6289263;28;20078;-52
2023/07/21 06:44:28;;;;;;;0.82;0.57;;;;;;;;;;6292541;28;20066;-53
2023/07/21 06:47:41;;;;;;;0.90;0.60;;;;;;;;;;6292616;28;20389;-53
2023/07/21 06:50:48;;;;;;;0.50;0.50;;;23.10;78.20;;;;;;6290187;28;20119;-51
2023/07/21 06:53:53;;;;;;;0.60;0.60;;;;;;;;;;6281886;28;20036;-49
2023/07/21 06:56:58;;;;;;;0.50;0.40;;;;;;;;;;6284078;28;20040;-51
2023/07/21 06:59:59;;;;;;;0.40;0.40;;;;;;;;;;6292803;28;20028;-52
2023/07/21 07:03:02;;;;;;;0.63;0.50;;;;;;;;;;6287029;28;20040;-50
2023/07/21 07:06:04;;;;;;;0.43;0.40;;;23.10;78.90;;;;;;6277803;28;20056;-48
2023/07/21 07:09:08;;;;;;;0.40;0.40;;;;;;;;;;6282999;28;20047;-52
2023/07/21 07:12:10;;;;;;;0.55;0.40;;;;;;;;;;6282998;28;20040;-50
2023/07/21 07:15:18;;;;;;;0.60;0.50;;;;;;;;;;6286910;28;20025;-51
2023/07/21 07:18:20;;;;;;;0.90;0.60;;;;;;;;;;6291076;28;20055;-53
2023/07/21 07:21:23;;;;;;;1.25;0.55;;;23.40;79.40;;;;;;6284277;28;20906;-49
2023/07/21 07:24:27;;;;;;;1.48;0.60;;;;;;;;;;6294406;28;20075;-50
2023/07/21 07:27:29;;;;;;;0.70;0.68;;;;;;;;;;6277277;28;20509;-50
2023/07/21 07:30:34;;;;;;;0.57;0.50;;;23.30;80.10;;;;;;6276976;28;20058;-49
2023/07/21 07:33:36;;;;;;;1.20;0.80;;;;;;;;;;6264176;28;20489;-46
2023/07/21 07:36:38;;;;;;;0.70;0.43;;;23.40;77.70;;;;;;6266711;28;20577;-49
2023/07/21 07:39:40;;;;;;;1.08;0.50;;;;;;;;;;6269520;28;20445;-49
2023/07/21 07:42:42;;;;;;;2.97;0.95;;;22.50;77.40;;;;;;6269936;28;20084;-52
2023/07/21 07:45:44;;;;;;;1.67;0.68;;;;;;;;;;6267385;28;20039;-51
2023/07/21 07:48:47;;;;;;;1.05;0.70;;;;;;;;;;6260416;28;20039;-47
2023/07/21 07:51:54;;;;;;;0.70;0.60;;;23.30;79.50;;;;;;6258418;28;20036;-51
2023/07/21 07:54:56;;;;;;;0.95;0.60;;;;;;;;;;6259595;28;20506;-51
2023/07/21 07:57:59;;;;;;;0.80;0.50;;;23.50;79.90;;;;;;6268004;28;20040;-47
2023/07/21 08:01:01;;;;;;;0.50;0.40;;;;;;;;;;6265475;28;20758;-48
2023/07/21 08:04:07;;;;;;;0.55;0.50;;;;;;;;;;6258436;28;20060;-47
2023/07/21 08:07:10;;;;;;;0.60;0.55;;;23.30;79.30;;;;;;6269063;28;20051;-48
2023/07/21 08:10:12;;;;;;;0.60;0.50;;;;;;;;;;6254385;28;20036;-49
2023/07/21 08:13:14;;;;;;;0.60;0.57;;;;;;;;;;6256667;28;20048;-49
2023/07/21 08:16:16;;;;;;;0.43;0.40;;;;;;;;;;6261791;28;20039;-50
2023/07/21 08:19:19;;;;;;;0.70;0.70;;;;;;;;;;6261751;28;20036;-50
2023/07/21 08:22:24;;;;;;;0.57;0.52;;;23.50;79.20;;;;;;6272208;28;20100;-54
2023/07/21 08:25:28;;;;;;;0.98;0.75;;;23.40;80.00;;;;;;6276756;28;20047;-51
2023/07/21 08:28:33;;;;;;;0.88;0.60;;;;;;;;;;6276043;28;20435;-52
2023/07/21 08:31:35;;;;;;;0.60;0.45;;;;;;;;;;6269855;28;20186;-51
2023/07/21 08:34:37;;;;;;;0.60;0.50;;;;;;;;;;6279041;28;20032;-50
2023/07/21 08:37:39;;;;;;;0.50;0.43;;;23.40;79.40;;;;;;6276134;28;20036;-50
2023/07/21 08:40:43;;;;;;;0.55;0.50;;;23.50;79.60;;;;;;6276841;28;20046;-51
2023/07/21 08:43:46;;;;;;;0.77;0.60;;;23.60;80.00;;;;;;6272407;28;20036;-50
2023/07/21 08:46:51;;;;;;;0.57;0.40;;;;;;;;;;6273900;28;20081;-51
2023/07/21 08:49:53;;;;;;;0.52;0.32;;;;;;;;;;6262524;28;20043;-52
2023/07/21 08:52:55;;;;;;;0.60;0.50;;;23.50;78.30;;;;;;6258379;28;20040;-49
2023/07/21 08:56:02;;;;;;;0.73;0.60;;;23.60;79.80;;;;;;6271665;28;20112;-48
2023/07/21 08:59:04;;;;;;;0.55;0.47;;;;;;;;;;6261845;28;20063;-51
2023/07/21 09:02:06;;;;;;;0.52;0.40;;;;;;;;;;6270899;28;20044;-50
2023/07/21 09:05:15;;;;;;;0.85;0.60;;;23.50;79.80;;;;;;6267746;28;20514;-49
2023/07/21 09:08:19;;;;;;;0.70;0.60;;;23.40;78.90;;;;;;6267332;28;20029;-49
2023/07/21 09:11:26;;;;;;;0.68;0.60;;;23.40;80.10;;;;;;6251647;28;20040;-51
2023/07/21 09:14:36;;;;;;;0.50;0.50;;;23.50;78.00;;;;;;6247119;28;20040;-52
2023/07/21 09:17:42;;;;;;;0.60;0.57;;;23.80;78.60;;;;;;6272103;28;20357;-48
2023/07/21 09:20:46;;;;;;;0.55;0.40;;;23.50;78.10;;;;;;6256209;28;20039;-47
2023/07/21 09:23:49;;;;;;;0.95;0.50;;;23.50;77.90;;;;;;6256863;28;20040;-47
2023/07/21 09:27:13;;;;;;;0.80;0.60;;;23.50;77.80;;;;;;6261487;28;20036;-47
2023/07/21 09:30:15;;;;;;;1.55;0.50;;;;;;;;;;6284331;28;20051;-51
2023/07/21 09:33:23;;;;;;;0.50;0.40;;;23.60;78.70;;;;;;6265359;28;20032;-48
2023/07/21 09:36:25;;;;;;;0.50;0.40;;;23.60;78.80;;;;;;6257407;28;20044;-50
2023/07/21 09:39:28;;;;;;;0.70;0.60;;;23.70;77.70;;;;;;6253805;28;20050;-53
2023/07/21 09:42:30;;;;;;;0.50;0.50;;;;;;;;;;6263688;28;20082;-47
2023/07/21 09:45:32;;;;;;;0.85;0.70;;;23.70;77.10;;;;;;6261685;28;20032;-50
2023/07/21 09:48:36;;;;;;;0.60;0.60;;;23.60;76.90;;;;;;6275359;28;20094;-52
2023/07/21 09:51:39;;;;;;;0.65;0.60;;;23.70;76.70;;;;;;6261240;28;20044;-51
2023/07/21 09:54:44;;;;;;;0.68;0.57;;;23.80;76.50;;;;;;6289475;28;20090;-48
2023/07/21 09:57:47;;;;;;;0.38;0.38;;;23.60;76.70;;;;;;6277515;28;20036;-49
2023/07/21 10:00:49;;;;;;;0.50;0.50;;;;;;;;;;6282371;28;20032;-51
2023/07/21 10:03:52;;;;;;;1.00;0.80;;;;;;;;;;6278171;28;20040;-52
2023/07/21 10:06:58;;;;;;;0.50;0.40;;;23.60;77.60;;;;;;6271984;28;20041;-53
2023/07/21 10:10:03;;;;;;;0.60;0.50;;;23.70;75.90;;;;;;6271783;28;20040;-50
2023/07/21 10:13:07;;;;;;;0.40;0.40;;;23.70;77.00;;;;;;6270528;28;20041;-50
2023/07/21 10:16:12;;;;;;;0.57;0.50;;;;;;;;;;6262563;28;20036;-48
2023/07/21 10:19:14;;;;;;;0.55;0.52;;;;;;;;;;6274893;28;20750;-51
2023/07/21 10:22:25;;;;;;;0.60;0.50;;;23.90;74.70;;;;;;6281609;28;20047;-53
2023/07/21 10:25:27;;;;;;;0.60;0.60;;;23.70;75.40;;;;;;6283980;28;20052;-51
2023/07/21 10:28:39;;;;;;;1.30;0.50;;;23.70;74.70;;;;;;6281310;28;20271;-50
2023/07/21 10:31:50;;;;;;;0.60;0.50;;;23.70;74.80;;;;;;6284092;28;20625;-50
2023/07/21 10:34:52;;;;;;;;;;;24.00;76.40;;;;;;6281890;28;20028;-51
2023/07/21 10:38:22;;;;;;;0.77;0.57;;;23.90;74.60;;;;;;6277074;28;20124;-51
2023/07/21 10:41:24;;;;;;;0.50;0.50;;;23.80;73.00;;;;;;6280073;28;20036;-51
2023/07/21 10:44:33;;;;;;;0.57;0.50;;;23.90;72.90;;;;;;6285055;28;20043;-53
2023/07/21 10:47:35;;;;;;;0.50;0.50;;;;;;;;;;6286833;28;20036;-50
2023/07/21 10:50:38;;;;;;;0.73;0.70;;;;;;;;;;6284088;28;20032;-48
2023/07/21 10:53:40;;;;;;;0.63;0.60;;;;;;;;;;6273920;28;20032;-49
2023/07/21 10:56:44;;;;;;;0.60;0.50;;;23.90;73.20;;;;;;6284022;28;20032;-49
2023/07/21 10:59:46;;;;;;;0.90;0.52;;;;;;;;;;6276249;28;20040;-52
2023/07/21 11:02:54;;;;;;;0.40;0.40;;;23.90;73.00;;;;;;6271066;28;20040;-53
2023/07/21 11:05:56;;;;;;;0.30;0.30;;;;;;;;;;6275067;28;20036;-53
2023/07/21 11:08:58;;;;;;;0.50;0.40;;;23.90;73.60;;;;;;6277170;28;20039;-50
2023/07/21 11:12:03;;;;;;;0.50;0.50;;;24.00;72.70;;;;;;6273516;28;20040;-51
2023/07/21 11:15:06;;;;;;;0.50;0.50;;;;;;;;;;6270717;28;20039;-53
2023/07/21 11:18:10;;;;;;;0.52;0.50;;;;;;;;;;6274577;28;20032;-50
2023/07/21 11:21:12;;;;;;;0.57;0.57;;;;;;;;;;6267159;28;20028;-49
2023/07/21 11:24:16;;;;;;;0.82;0.65;;;24.10;71.90;;;;;;6254996;28;20039;-50
2023/07/21 11:27:22;;;;;;;0.73;0.55;;;24.00;71.80;;;;;;6252781;28;20043;-50
2023/07/21 11:30:25;;;;;;;0.63;0.50;;;24.10;71.80;;;;;;6269703;28;20040;-51
2023/07/21 11:33:40;;;;;;;0.70;0.50;;;24.70;72.10;;;;;;6251162;28;20514;-52
2023/07/21 11:36:42;;;;;;;0.50;0.40;;;;;;;;;;6243190;28;20043;-50
2023/07/21 11:39:55;;;;;;;2.08;0.70;;;23.80;71.60;;;;;;6236900;28;20807;-49
2023/07/21 11:42:58;;;;;;;0.60;0.55;;;24.00;70.40;;;;;;6196296;28;20071;-49
2023/07/21 11:46:00;;;;;;;0.40;0.40;;;;;;;;;;6234979;28;20035;-51
2023/07/21 11:49:10;;;;;;;0.68;0.60;;;;;;;;;;6239711;28;20036;-50
2023/07/21 11:52:22;;;;;;;0.60;0.52;;;23.70;71.00;;;;;;6234975;28;20993;-50
2023/07/21 11:55:28;;;;;;;0.60;0.50;;;;;;;;;;6238687;28;20093;-49
2023/07/21 11:58:31;;;;;;;0.57;0.50;;;24.00;71.30;;;;;;6264106;28;20253;-51
2023/07/21 12:01:35;;;;;;;0.65;0.50;;;;;;;;;;6272427;28;20170;-52
2023/07/21 12:04:37;;;;;;;0.70;0.60;;;24.40;69.70;;;;;;6272169;28;20411;-52
2023/07/21 12:07:39;;;;;;;0.95;0.60;;;;;;;;;;6269542;28;20119;-53
2023/07/21 12:10:44;;;;;;;0.68;0.40;;;;;;;;;;6281477;28;20060;-51
2023/07/21 12:13:46;;;;;;;0.40;0.40;;;24.40;68.70;;;;;;6287381;28;20100;-50
2023/07/21 12:16:48;;;;;;;0.85;0.50;;;;;;;;;;6286019;28;20040;-50
2023/07/21 12:19:50;;;;;;;0.65;0.52;;;;;;;;;;6291958;28;20035;-53
2023/07/21 12:22:54;;;;;;;0.50;0.50;;;;;;;;;;6284481;28;20047;-48
2023/07/21 12:25:56;;;;;;;0.63;0.60;;;;;;;;;;6286514;28;20043;-51
2023/07/21 12:28:59;;;;;;;0.82;0.68;;;24.40;69.40;;;;;;6290505;28;20032;-53
2023/07/21 12:32:07;;;;;;;0.50;0.43;;;;;;;;;;6276845;28;20047;-52
2023/07/21 12:35:09;;;;;;;1.17;0.63;;;;;;;;;;6281287;28;20036;-51
2023/07/21 12:38:11;;;;;;;0.50;0.50;;;;;;;;;;6287342;28;20398;-50
2023/07/21 12:41:14;;;;;;;0.65;0.50;;;;;;;;;;6279662;28;20041;-52
2023/07/21 12:44:16;;;;;;;0.95;0.70;;;24.60;68.80;;;;;;6274772;28;20123;-53
2023/07/21 12:47:19;;;;;;;0.57;0.50;;;;;;;;;;6284705;28;20423;-50
2023/07/21 12:50:22;;;;;;;0.60;0.60;;;;;;;;;;6274941;28;20044;-52
2023/07/21 12:53:24;;;;;;;0.60;0.50;;;;;;;;;;6260752;28;20051;-50
2023/07/21 12:56:26;;;;;;;1.25;0.60;;;;;;;;;;6277424;28;20040;-49
2023/07/21 12:59:29;;;;;;;1.40;0.73;;;24.60;68.70;;;;;;6273295;28;20032;-53
2023/07/21 13:02:32;;;;;;;0.88;0.68;;;;;;;;;;6261170;28;20040;-49
2023/07/21 13:05:34;;;;;;;0.55;0.55;;;;;;;;;;6268355;28;20502;-49
2023/07/21 13:08:56;;;;;;;0.60;0.60;;;24.60;67.20;;;;;;6271245;28;20035;-49
2023/07/21 13:11:58;;;;;;;0.90;0.75;;;;;;;;;;6271671;28;20062;-50
2023/07/21 13:15:02;;;;;;;0.68;0.68;;;24.50;68.10;;;;;;6269519;28;20686;-50
2023/07/21 13:18:06;;;;;;;1.10;0.70;;;;;;;;;;6282299;28;20056;-54
2023/07/21 13:21:08;;;;;;;0.90;0.80;;;;;;;;;;6262927;28;20024;-48
2023/07/21 13:24:10;;;;;;;1.10;0.85;;;;;;;;;;6271514;28;20036;-49
2023/07/21 13:27:12;;;;;;;1.00;0.70;;;;;;;;;;6271958;28;20051;-49
2023/07/21 13:30:14;;;;;;;0.95;0.88;;;24.70;68.70;;;;;;6277582;28;20047;-52
2023/07/21 13:33:16;;;;;;;1.02;0.80;;;;;;;;;;6294197;28;20047;-48
2023/07/21 13:36:18;;;;;;;1.15;0.70;;;;;;;;;;6286044;28;20044;-52
2023/07/21 13:39:19;;;;;;;0.80;0.70;;;;;;;;;;6279072;28;20047;-52
2023/07/21 13:42:23;;;;;;;0.70;0.70;;;;;;;;;;6287820;28;20120;-52
2023/07/21 13:45:25;;;;;;;0.95;0.70;;;24.80;66.50;;;;;;6265047;28;20323;-51
2023/07/21 13:48:27;;;;;;;1.77;0.90;;;;;;;;;;6285353;28;20534;-52
2023/07/21 13:51:31;;;;;;;1.02;0.85;;;;;;;;;;6281341;28;20036;-53
2023/07/21 13:54:35;;;;;;;1.00;0.75;;;;;;;;;;6291698;28;20040;-51
2023/07/21 13:57:37;;;;;;;0.77;0.65;;;;;;;;;;6293987;28;20043;-53
2023/07/21 14:00:41;;;;;;;0.60;0.50;;;24.80;65.60;;;;;;6279465;28;20028;-51
2023/07/21 14:03:46;;;;;;;0.50;0.50;;;;;;;;;;6282190;28;20040;-48
2023/07/21 14:06:51;;;;;;;0.95;0.80;;;;;;;;;;6292860;28;20784;-50
2023/07/21 14:09:53;;;;;;;0.65;0.52;;;;;;;;;;6290140;28;20044;-50
2023/07/21 14:12:55;;;;;;;0.70;0.50;;;;;;;;;;6293978;28;20093;-49
2023/07/21 14:15:58;;;;;;;0.80;0.60;;;24.70;62.50;;;;;;6284081;28;20047;-50
2023/07/21 14:19:03;;;;;;;0.82;0.50;;;24.70;64.10;;;;;;6284347;28;20047;-49
2023/07/21 14:22:07;;;;;;;0.75;0.60;;;;;;;;;;6280283;28;20678;-50
2023/07/21 14:25:11;;;;;;;0.75;0.60;;;;;;;;;;6282059;28;20060;-54
2023/07/21 14:28:13;;;;;;;0.93;0.52;;;;;;;;;;6286288;28;20542;-49
2023/07/21 14:31:15;;;;;;;1.00;0.80;;;24.60;65.30;;;;;;6283132;28;20483;-50
2023/07/21 14:34:17;;;;;;;0.70;0.50;;;;;;;;;;6283357;28;20044;-53
2023/07/21 14:37:19;;;;;;;0.77;0.68;;;;;;;;;;6283480;28;20036;-52
2023/07/21 14:40:21;;;;;;;0.68;0.63;;;;;;;;;;6289077;28;20043;-50
2023/07/21 14:43:23;;;;;;;0.90;0.60;;;;;;;;;;6278622;28;20631;-51
2023/07/21 14:46:25;;;;;;;0.90;0.77;;;24.70;64.40;;;;;;6283818;28;20046;-53
2023/07/21 14:49:27;;;;;;;0.63;0.50;;;;;;;;;;6279305;28;20075;-50
2023/07/21 14:52:30;;;;;;;0.68;0.50;;;;;;;;;;6276484;28;20055;-51
2023/07/21 14:55:31;;;;;;;0.75;0.60;;;;;;;;;;6282243;28;20083;-53
2023/07/21 14:58:33;;;;;;;0.88;0.70;;;;;;;;;;6280920;28;20486;-51
2023/07/21 15:01:36;;;;;;;0.80;0.50;;;24.70;64.10;;;;;;6265443;28;20033;-49
2023/07/21 15:04:37;;;;;;;0.80;0.50;;;;;;;;;;6276084;28;20093;-52
2023/07/21 15:07:39;;;;;;;0.80;0.70;;;;;;;;;;6262284;28;20040;-52
2023/07/21 15:10:41;;;;;;;0.82;0.70;;;;;;;;;;6276078;28;20220;-49
2023/07/21 15:13:43;;;;;;;0.88;0.60;;;;;;;;;;6276643;28;20196;-52
2023/07/21 15:16:46;;;;;;;0.68;0.60;;;24.80;63.40;;;;;;6259484;28;20036;-51
2023/07/21 15:19:48;;;;;;;0.93;0.57;;;;;;;;;;6267814;28;20028;-49
2023/07/21 15:22:50;;;;;;;0.80;0.50;;;;;;;;;;6282437;28;20040;-52
2023/07/21 15:25:53;;;;;;;3.08;0.60;;;;;;;;;;6288253;28;20040;-51
2023/07/21 15:28:56;;;;;;;0.82;0.63;;;;;;;;;;6293494;28;20589;-51
2023/07/21 15:31:58;;;;;;;0.82;0.63;;;24.70;63.20;;;;;;6289887;28;20064;-53
2023/07/21 15:35:00;;;;;;;0.63;0.50;;;;;;;;;;6286179;28;20043;-50
2023/07/21 15:38:02;;;;;;;0.90;0.68;;;;;;;;;;6285690;28;20213;-53
2023/07/21 15:41:04;;;;;;;0.63;0.57;;;;;;;;;;6276746;28;20044;-52
2023/07/21 15:44:06;;;;;;;0.73;0.55;;;;;;;;;;6277178;28;20032;-51
2023/07/21 15:47:08;;;;;;;0.70;0.60;;;24.80;61.60;;;;;;6278005;28;20164;-54
2023/07/21 15:50:11;;;;;;;0.80;0.77;;;24.90;61.60;;;;;;6283786;28;20032;-51
2023/07/21 15:53:13;;;;;;;0.60;0.50;;;;;;;;;;6268823;28;20048;-52
2023/07/21 15:56:15;;;;;;;0.68;0.68;;;;;;;;;;6283002;28;20047;-50
2023/07/21 15:59:21;;;;;;;0.63;0.50;;;;;;;;;;6279128;28;20040;-49
2023/07/21 16:02:23;;;;;;;0.63;0.60;;;24.90;62.40;;;;;;6288053;28;20062;-52
2023/07/21 16:05:25;;;;;;;0.95;0.88;;;;;;;;;;6282032;28;20054;-49
2023/07/21 16:08:27;;;;;;;0.80;0.80;;;;;;;;;;6277957;28;20110;-53
2023/07/21 16:11:31;;;;;;;0.82;0.80;;;;;;;;;;6283843;28;20036;-50
2023/07/21 16:14:33;;;;;;;1.95;0.70;;;;;;;;;;6285195;28;20040;-51
2023/07/21 16:17:38;;;;;;;0.82;0.68;;;24.80;62.60;;;;;;6287340;28;20032;-52
2023/07/21 16:20:41;;;;;;;0.90;0.65;;;;;;;;;;6284407;28;20036;-49
2023/07/21 16:23:43;;;;;;;0.70;0.60;;;;;;;;;;6289089;28;20093;-51
2023/07/21 16:26:45;;;;;;;0.65;0.50;;;;;;;;;;6290183;28;20048;-54
2023/07/21 16:29:47;;;;;;;0.70;0.50;;;;;;;;;;6285280;28;20066;-49
2023/07/21 16:32:50;;;;;;;0.70;0.50;;;24.90;61.90;;;;;;6288889;28;20091;-51
2023/07/21 16:35:52;;;;;;;0.57;0.52;;;;;;;;;;6285151;28;20046;-52
2023/07/21 16:38:53;;;;;;;0.85;0.70;;;;;;;;;;6290068;28;20040;-51
2023/07/21 16:41:55;;;;;;;0.70;0.60;;;;;;;;;;6286409;28;20036;-50
2023/07/21 16:44:57;;;;;;;0.90;0.63;;;;;;;;;;6292590;28;20050;-50
2023/07/21 16:48:03;;;;;;;1.13;0.60;;;24.90;60.10;;;;;;6290864;28;20047;-50
2023/07/21 16:51:06;;;;;;;0.68;0.55;;;24.90;59.80;;;;;;6292474;28;20043;-53
2023/07/21 16:54:08;;;;;;;0.85;0.65;;;;;;;;;;6290300;28;20040;-48
2023/07/21 16:57:15;;;;;;;0.90;0.80;;;;;;;;;;6289955;28;20871;-53
2023/07/21 17:00:17;;;;;;;0.82;0.70;;;;;;;;;;6288027;28;20121;-47
2023/07/21 17:03:21;;;;;;;1.35;0.90;;;25.10;59.90;;;;;;6284627;28;20510;-52
2023/07/21 17:06:23;;;;;;;0.70;0.63;;;;;;;;;;6283438;28;20106;-51
2023/07/21 17:09:26;;;;;;;0.90;0.55;;;;;;;;;;6281441;28;20048;-53
2023/07/21 17:12:28;;;;;;;0.70;0.65;;;;;;;;;;6282224;28;20035;-51
2023/07/21 17:15:31;;;;;;;0.70;0.50;;;;;;;;;;6286680;28;20240;-47
2023/07/21 17:18:33;;;;;;;0.60;0.60;;;25.00;59.50;;;;;;6288394;28;20448;-48
2023/07/21 17:21:36;;;;;;;0.60;0.45;;;25.00;56.10;;;;;;6288778;28;20070;-52
2023/07/21 17:24:38;;;;;;;1.13;0.68;;;;;;;;;;6289577;28;20036;-52